Time;durP1;ratioP1;P1;durP2;ratioP2;P2;SDS_P1;SDS_P2;PMS_P1;PMS_P2;Temp;Humidity;BMP_temperature;BMP_pressure;BME280_temperature;BME280_humidity;BME280_pressure;Samples;Min_cycle;Max_cycle;Signal;HPM_P1;HPM_P2
2022/09/01 00:02:26;;;;;;;10.93;5.37;;;;;;;11.71;100.00;98397.22;1759176;80;21009;-83
2022/09/01 00:04:49;;;;;;;9.90;5.58;;;;;;;11.72;100.00;98401.55;1754965;81;21068;-90
2022/09/01 00:07:15;;;;;;;11.10;5.72;;;;;;;11.73;100.00;98399.11;1735651;82;21327;-83
2022/09/01 00:09:41;;;;;;;9.55;5.70;;;;;;;11.71;100.00;98396.41;1756097;80;20958;-85
2022/09/01 00:12:08;;;;;;;11.33;4.80;;;;;;;11.69;100.00;98398.02;1756173;81;20958;-83
2022/09/01 00:14:37;;;;;;;10.88;6.22;;;;;;;11.65;100.00;98392.08;1718879;82;20984;-91
2022/09/01 00:17:06;;;;;;;7.72;5.03;;;;;;;11.56;100.00;98394.55;1748489;80;21063;-91
2022/09/01 00:19:32;;;;;;;10.85;6.20;;;;;;;11.55;100.00;98393.75;1759934;80;21065;-90
2022/09/01 00:21:59;;;;;;;8.80;4.90;;;;;;;11.54;100.00;98392.13;1751913;80;20973;-83
2022/09/01 00:24:25;;;;;;;10.70;6.05;;;;;;;11.51;100.00;98391.84;1704318;83;21520;-83
2022/09/01 00:26:51;;;;;;;8.60;5.42;;;;;;;11.49;100.00;98390.77;1726189;81;21014;-83
2022/09/01 00:29:17;;;;;;;7.72;4.92;;;;;;;11.47;100.00;98392.14;1760784;80;21552;-88
2022/09/01 00:31:43;;;;;;;9.13;4.60;;;;;;;11.48;100.00;98391.05;1764258;80;21194;-90
2022/09/01 00:34:09;;;;;;;12.45;6.25;;;;;;;11.48;100.00;98393.77;1763777;80;20963;-84
2022/09/01 00:36:35;;;;;;;10.80;5.75;;;;;;;11.47;100.00;98387.53;1764284;80;20986;-83
2022/09/01 00:39:01;;;;;;;8.60;4.95;;;;;;;11.45;100.00;98393.78;1758764;80;20886;-83
2022/09/01 00:41:29;;;;;;;9.68;4.87;;;;;;;11.45;100.00;98391.59;1752610;80;20906;-90
2022/09/01 00:43:59;;;;;;;10.35;4.72;;;;;;;11.45;100.00;98385.64;1764257;80;21071;-83
2022/09/01 00:46:28;;;;;;;8.45;4.75;;;;;;;11.40;100.00;98384.29;1747915;80;21037;-83
2022/09/01 00:49:12;;;;;;;6.03;4.28;;;;;;;11.37;100.00;98379.97;1763425;80;21021;-90
2022/09/01 00:51:39;;;;;;;7.45;4.58;;;;;;;11.35;100.00;98386.20;1761777;80;20977;-84
2022/09/01 00:54:06;;;;;;;6.92;4.53;;;;;;;11.34;100.00;98391.36;1721091;81;21068;-90
2022/09/01 00:56:33;;;;;;;6.30;4.47;;;;;;;11.35;100.00;98386.20;1724353;81;21486;-90
2022/09/01 00:58:59;;;;;;;13.03;5.53;;;;;;;11.34;100.00;98382.67;1732229;82;20966;-90
2022/09/01 01:01:26;;;;;;;6.90;4.80;;;;;;;11.33;100.00;98387.02;1747480;80;21069;-90
2022/09/01 01:03:52;;;;;;;7.40;4.67;;;;;;;11.25;100.00;98384.33;1764050;80;21041;-90
2022/09/01 01:06:18;;;;;;;11.35;5.90;;;;;;;11.24;100.00;98384.87;1758111;80;21537;-89
2022/09/01 01:08:55;;;;;;;11.60;6.05;;;;;;;11.23;100.00;98379.72;1756484;81;21862;-90
2022/09/01 01:11:17;;;;;;;7.37;4.67;;;;;;;11.20;100.00;98384.35;1757738;80;21073;-90
2022/09/01 01:13:55;;;;;;;7.62;4.50;;;;;;;11.22;100.00;98387.59;1755455;81;20985;-90
2022/09/01 01:16:23;;;;;;;8.48;5.15;;;;;;;11.20;100.00;98377.57;1760575;80;21008;-90
2022/09/01 01:18:50;;;;;;;8.58;5.10;;;;;;;11.19;100.00;98379.44;1755959;81;21076;-86
2022/09/01 01:24:26;;;;;;;7.55;5.00;;;;;;;11.17;100.00;98378.91;1755900;81;20993;-89
2022/09/01 01:26:54;;;;;;;7.37;4.70;;;;;;;11.17;100.00;98372.67;1757300;81;21481;-90
2022/09/01 01:29:20;;;;;;;8.03;4.63;;;;;;;11.14;100.00;98374.05;1757712;81;21060;-90
2022/09/01 01:31:48;;;;;;;10.98;5.37;;;;;;;11.15;100.00;98372.15;1742654;80;20879;-83
2022/09/01 01:34:16;;;;;;;7.58;3.80;;;;;;;11.16;100.00;98373.22;1760339;80;21044;-90
2022/09/01 01:36:42;;;;;;;10.50;4.75;;;;;;;11.16;100.00;98373.22;1761482;80;20997;-89
2022/09/01 01:39:13;;;;;;;8.55;5.17;;;;;;;11.15;100.00;98377.57;1749608;81;20901;-83
2022/09/01 01:41:41;;;;;;;7.83;4.75;;;;;;;11.14;100.00;98368.63;1758654;80;21010;-90
2022/09/01 01:44:07;;;;;;;6.63;4.17;;;;;;;11.15;100.00;98372.15;1764198;80;21060;-83
2022/09/01 01:46:34;;;;;;;8.05;5.22;;;;;;;11.17;100.00;98371.32;1764139;80;21879;-84
2022/09/01 01:49:03;;;;;;;11.20;4.92;;;;;;;11.18;100.00;98371.04;1764729;80;20974;-89
2022/09/01 01:51:31;;;;;;;18.52;5.58;;;;;;;11.18;100.00;98372.94;1731536;81;21024;-83
2022/09/01 01:53:58;;;;;;;7.28;4.15;;;;;;;11.18;100.00;98366.16;1743815;80;21024;-84
2022/09/01 01:56:24;;;;;;;6.72;4.60;;;;;;;11.19;100.00;98366.42;1764169;80;21481;-83
2022/09/01 01:58:54;;;;;;;11.12;3.92;;;;;;;11.19;100.00;98367.23;1760179;80;21165;-83
2022/09/01 02:01:23;;;;;;;7.92;4.62;;;;;;;11.21;100.00;98367.80;1757685;80;20989;-90
2022/09/01 02:03:53;;;;;;;5.62;3.80;;;;;;;11.21;100.00;98368.34;1763976;80;21037;-83
2022/09/01 02:06:19;;;;;;;9.83;4.28;;;;;;;11.22;100.00;98360.47;1747773;80;21057;-90
2022/09/01 02:08:46;;;;;;;6.78;4.62;;;;;;;11.21;100.00;98356.95;1758712;80;20957;-83
2022/09/01 02:11:12;;;;;;;6.22;3.67;;;;;;;11.21;100.00;98354.23;1757366;80;20922;-90
2022/09/01 02:13:38;;;;;;;6.58;3.70;;;;;;;11.20;100.00;98349.91;1694440;83;21005;-90
2022/09/01 02:16:10;;;;;;;6.62;3.65;;;;;;;11.23;100.00;98356.67;1730928;80;21075;-90
2022/09/01 02:18:37;;;;;;;5.40;3.40;;;;;;;11.25;100.00;98358.55;1755358;81;20981;-91
2022/09/01 02:21:09;;;;;;;10.15;4.50;;;;;;;11.27;100.00;98356.37;1729992;82;21018;-83
2022/09/01 02:23:37;;;;;;;8.55;4.20;;;;;;;11.29;100.00;98353.67;1757280;81;21123;-90
2022/09/01 02:26:05;;;;;;;9.30;4.22;;;;;;;11.32;100.00;98356.91;1756333;80;21476;-83
2022/09/01 02:28:35;;;;;;;6.40;4.17;;;;;;;11.32;100.00;98351.48;1761618;80;21012;-89
2022/09/01 02:31:02;;;;;;;7.85;3.40;;;;;;;11.33;100.00;98354.47;1759538;80;21282;-83
2022/09/01 02:33:29;;;;;;;6.12;3.77;;;;;;;11.33;100.00;98362.61;1755635;81;21036;-89
2022/09/01 02:35:58;;;;;;;5.67;3.85;;;;;;;11.32;100.00;98355.56;1760032;80;21134;-90
2022/09/01 02:38:28;;;;;;;8.73;3.77;;;;;;;11.29;100.00;98353.67;1768022;80;21013;-89
2022/09/01 02:40:55;;;;;;;5.85;3.80;;;;;;;11.27;100.00;98368.03;1755467;80;21520;-90
2022/09/01 02:43:21;;;;;;;6.45;3.58;;;;;;;11.23;100.00;98366.97;1755394;80;20985;-90
2022/09/01 02:45:54;;;;;;;7.97;4.97;;;;;;;11.20;100.00;98364.82;1707963;82;21029;-91
2022/09/01 02:48:17;;;;;;;7.65;4.17;;;;;;;11.17;100.00;98364.00;1754613;80;21212;-89
2022/09/01 02:50:43;;;;;;;10.93;3.80;;;;;;;11.15;100.00;98359.94;1741563;80;21643;-89
2022/09/01 02:53:11;;;;;;;6.72;3.87;;;;;;;11.14;100.00;98356.97;1760000;79;20915;-83
2022/09/01 02:55:38;;;;;;;6.40;3.98;;;;;;;11.12;100.00;98361.86;1763673;80;21447;-86
2022/09/01 02:58:09;;;;;;;6.47;4.05;;;;;;;11.12;100.00;98363.22;1764012;79;21018;-83
2022/09/01 03:00:36;;;;;;;;;;;;;;;11.12;100.00;98366.73;1764980;79;21871;-89
2022/09/01 03:03:01;;;;;;;6.35;3.58;;;;;;;11.12;100.00;98365.38;1727992;82;20164;-88
2022/09/01 03:05:29;;;;;;;5.75;3.47;;;;;;;11.04;100.00;98363.23;1755603;81;21460;-90
2022/09/01 03:07:59;;;;;;;4.55;3.12;;;;;;;11.01;100.00;98367.28;1751573;80;21013;-83
2022/09/01 03:10:31;;;;;;;8.20;4.05;;;;;;;10.95;100.00;98356.19;1763413;80;21035;-89
2022/09/01 03:12:55;;;;;;;9.53;4.37;;;;;;;10.92;100.00;98361.33;1763766;80;21072;-83
2022/09/01 03:15:22;;;;;;;6.55;3.60;;;;;;;10.92;100.00;98357.27;1760968;80;20878;-83
2022/09/01 03:17:48;;;;;;;5.90;3.67;;;;;;;10.93;100.00;98361.59;1756826;81;21457;-84
2022/09/01 03:20:15;;;;;;;6.95;4.17;;;;;;;10.92;100.00;98354.01;1757177;80;21071;-83
2022/09/01 03:22:43;;;;;;;10.55;4.92;;;;;;;10.94;100.00;98353.22;1732643;82;21473;-83
2022/09/01 03:25:09;;;;;;;13.58;4.95;;;;;;;10.91;100.00;98353.73;1757212;81;21154;-90
2022/09/01 03:27:35;;;;;;;8.70;4.58;;;;;;;10.88;100.00;98346.71;1732610;82;21264;-90
2022/09/01 03:30:01;;;;;;;8.78;3.85;;;;;;;10.87;100.00;98356.74;1757493;81;21016;-89
2022/09/01 03:32:28;;;;;;;7.97;3.55;;;;;;;10.87;100.00;98360.00;1756504;81;21410;-82
2022/09/01 03:34:54;;;;;;;7.30;4.58;;;;;;;10.89;100.00;98355.11;1755725;80;21024;-83
2022/09/01 03:37:22;;;;;;;8.00;3.75;;;;;;;10.88;100.00;98359.72;1732929;80;21671;-89
2022/09/01 03:39:50;;;;;;;8.03;4.05;;;;;;;10.88;100.00;98359.72;1744029;80;21480;-89
2022/09/01 03:42:24;;;;;;;7.78;3.80;;;;;;;10.91;100.00;98366.48;1772018;80;28144;-89
2022/09/01 03:44:48;;;;;;;9.23;4.58;;;;;;;10.93;100.00;98365.66;1771884;80;20982;-83
2022/09/01 03:47:15;;;;;;;9.78;4.37;;;;;;;10.91;100.00;98364.59;1762232;80;21179;-88
2022/09/01 03:49:42;;;;;;;10.88;4.40;;;;;;;10.89;100.00;98360.53;1731928;82;21876;-83
2022/09/01 03:52:10;;;;;;;7.53;4.40;;;;;;;10.88;100.00;98358.91;1741617;82;21005;-83
2022/09/01 03:54:36;;;;;;;6.25;4.25;;;;;;;10.89;100.00;98363.24;1737978;82;21449;-83
2022/09/01 03:57:05;;;;;;;8.63;4.45;;;;;;;10.83;100.00;98359.72;1744811;82;20887;-83
2022/09/01 03:59:31;;;;;;;6.28;4.22;;;;;;;10.81;100.00;98360.54;1732011;81;21074;-82
2022/09/01 04:01:59;;;;;;;8.48;3.60;;;;;;;10.81;100.00;98363.80;1736963;81;21155;-84
2022/09/01 04:04:25;;;;;;;8.48;3.87;;;;;;;10.80;100.00;98362.98;1765963;81;21489;-83
2022/09/01 04:06:51;;;;;;;9.48;3.62;;;;;;;10.80;100.00;98367.05;1733356;80;21058;-83
2022/09/01 04:09:17;;;;;;;9.53;4.60;;;;;;;10.78;100.00;98362.45;1730378;82;20884;-90
2022/09/01 04:11:45;;;;;;;8.30;4.50;;;;;;;10.74;100.00;98356.74;1746241;82;20906;-83
2022/09/01 04:14:11;;;;;;;7.53;4.22;;;;;;;10.68;100.00;98357.85;1732278;81;21880;-83
2022/09/01 04:19:24;;;;;;;5.22;4.12;;;;;;;10.53;100.00;98363.81;1764371;80;21041;-83
2022/09/01 04:21:56;;;;;;;9.45;4.75;;;;;;;10.49;100.00;98368.13;1745946;80;21510;-89
2022/09/01 04:24:23;;;;;;;7.12;3.58;;;;;;;10.50;100.00;98360.27;1764437;80;21005;-90
2022/09/01 04:26:50;;;;;;;6.20;4.45;;;;;;;10.53;100.00;98360.56;1741784;80;21170;-83
2022/09/01 04:29:18;;;;;;;10.05;4.15;;;;;;;10.56;100.00;98360.00;1723820;81;20989;-84
2022/09/01 04:31:44;;;;;;;7.15;4.03;;;;;;;10.62;100.00;98362.19;1733485;80;21010;-83
2022/09/01 04:34:13;;;;;;;7.25;4.15;;;;;;;10.66;100.00;98364.06;1733440;81;21466;-83
2022/09/01 04:36:43;;;;;;;12.20;4.78;;;;;;;10.74;100.00;98366.77;1746295;82;21052;-83
2022/09/01 04:39:11;;;;;;;6.50;4.00;;;;;;;10.80;100.00;98368.41;1745779;82;21124;-85
2022/09/01 04:41:43;;;;;;;9.23;5.03;;;;;;;10.87;100.00;98366.23;1734219;80;21443;-89
2022/09/01 04:44:09;;;;;;;9.43;4.40;;;;;;;10.93;100.00;98369.73;1744264;82;21037;-90
2022/09/01 04:46:41;;;;;;;8.03;4.95;;;;;;;10.94;100.00;98364.06;1743651;80;20888;-83
2022/09/01 04:49:10;;;;;;;15.15;4.15;;;;;;;10.97;100.00;98374.89;1756243;79;21421;-84
2022/09/01 04:51:42;;;;;;;11.05;3.85;;;;;;;11.05;100.00;98371.63;1746994;80;21075;-90
2022/09/01 04:54:13;;;;;;;7.15;3.92;;;;;;;11.15;100.00;98377.03;1738730;81;21068;-90
2022/09/01 04:56:37;;;;;;;8.08;3.92;;;;;;;11.24;100.00;98373.20;1710744;81;20985;-84
2022/09/01 04:59:05;;;;;;;8.13;4.12;;;;;;;11.27;100.00;98366.67;1741674;82;20977;-89
2022/09/01 05:01:31;;;;;;;14.65;5.50;;;;;;;11.36;100.00;98368.28;1751440;80;20976;-84
2022/09/01 05:04:00;;;;;;;12.90;6.28;;;;;;;11.35;100.00;98368.56;1723087;81;21054;-90
2022/09/01 05:06:27;;;;;;;;;;;;;;;11.39;100.00;98366.39;1732124;80;21019;-83
2022/09/01 05:08:56;;;;;;;11.12;5.62;;;;;;;11.43;100.00;98366.64;1757484;80;20170;-84
2022/09/01 05:11:22;;;;;;;9.43;5.62;;;;;;;11.50;100.00;98375.30;1767650;80;20990;-90
2022/09/01 05:13:48;;;;;;;16.80;6.67;;;;;;;11.58;100.00;98371.47;1764311;79;21006;-90
2022/09/01 05:16:20;;;;;;;13.38;7.40;;;;;;;11.66;100.00;98378.77;1745501;80;21534;-90
2022/09/01 05:18:47;;;;;;;21.27;7.92;;;;;;;11.73;100.00;98371.15;1714999;80;21004;-83
2022/09/01 05:21:18;;;;;;;13.72;7.30;;;;;;;11.78;100.00;98375.17;1716334;81;21014;-90
2022/09/01 05:23:45;;;;;;;22.22;7.47;;;;;;;11.81;100.00;98373.31;1745202;82;21022;-83
2022/09/01 05:26:15;;;;;;;24.55;7.50;;;;;;;11.84;100.00;98370.03;1731923;80;21073;-90
2022/09/01 05:28:44;;;;;;;19.45;7.37;;;;;;;11.82;100.00;98372.22;1734390;82;21522;-89
2022/09/01 05:31:11;;;;;;;;;;;;;;;11.79;100.00;98376.28;1743104;82;21442;-90
2022/09/01 05:33:44;;;;;;;17.50;7.30;;;;;;;11.88;100.00;98368.91;1742529;82;20123;-83
2022/09/01 05:36:07;;;;;;;13.75;8.08;;;;;;;11.92;100.00;98372.70;1740865;79;21067;-90
2022/09/01 05:38:34;;;;;;;13.25;8.53;;;;;;;11.89;100.00;98370.56;1745784;80;21012;-83
2022/09/01 05:41:03;;;;;;;16.42;10.13;;;;;;;11.95;100.00;98372.95;1735153;81;21734;-83
2022/09/01 05:43:30;;;;;;;13.93;8.90;;;;;;;12.05;100.00;98372.11;1731185;81;21414;-82
2022/09/01 05:45:59;;;;;;;12.68;8.25;;;;;;;12.22;100.00;98377.14;1741676;80;21016;-90
2022/09/01 05:48:29;;;;;;;14.93;9.63;;;;;;;12.36;100.00;98380.86;1733026;81;21048;-91
2022/09/01 05:50:58;;;;;;;16.67;9.23;;;;;;;12.52;100.00;98384.28;1732534;82;21039;-83
2022/09/01 05:53:24;;;;;;;15.00;9.03;;;;;;;12.62;100.00;98380.94;1721469;82;21490;-84
2022/09/01 05:55:53;;;;;;;11.73;7.07;;;;;;;12.69;100.00;98381.42;1720390;81;21001;-90
2022/09/01 05:58:18;;;;;;;10.58;7.60;;;;;;;12.76;100.00;98387.09;1751451;80;21036;-90
2022/09/01 06:00:48;;;;;;;16.65;8.85;;;;;;;12.75;100.00;98387.64;1744903;81;21004;-83
2022/09/01 06:03:16;;;;;;;12.18;8.98;;;;;;;12.75;100.00;98390.36;1750075;81;21067;-83
2022/09/01 06:05:43;;;;;;;13.17;8.03;;;;;;;12.70;100.00;98391.20;1744275;79;21032;-90
2022/09/01 06:08:12;;;;;;;13.32;8.80;;;;;;;12.70;100.00;98391.20;1727213;79;37455;-90
2022/09/01 06:10:38;;;;;;;11.38;6.95;;;;;;;12.68;100.00;98394.76;1763925;80;21020;-84
2022/09/01 06:13:07;;;;;;;13.55;7.12;;;;;;;12.58;100.00;98397.56;1750055;80;20996;-90
2022/09/01 06:15:34;;;;;;;10.63;7.37;;;;;;;12.63;100.00;98393.98;1767137;79;20971;-83
2022/09/01 06:18:00;;;;;;;11.73;6.42;;;;;;;12.82;100.00;98397.66;1774229;80;21035;-83
2022/09/01 06:20:26;;;;;;;9.73;6.92;;;;;;;12.93;100.00;98395.65;1762676;80;21644;-83
2022/09/01 06:22:52;;;;;;;10.90;5.40;;;;;;;13.14;100.00;98389.45;1759727;80;20890;-89
2022/09/01 06:25:19;;;;;;;8.43;5.67;;;;;;;13.44;100.00;98385.09;1771827;80;21084;-90
2022/09/01 06:27:46;;;;;;;7.45;4.47;;;;;;;13.75;100.00;98389.61;1771950;79;21053;-88
2022/09/01 06:30:19;;;;;;;6.83;4.55;;;;;;;14.21;100.00;98390.39;1773274;79;21001;-83
2022/09/01 06:32:43;;;;;;;13.22;4.37;;;;;;;14.68;100.00;98388.61;1762915;79;21469;-89
2022/09/01 06:35:12;;;;;;;6.53;3.37;;;;;;;14.87;95.53;98391.33;1758981;79;21030;-91
2022/09/01 06:37:38;;;;;;;5.47;3.70;;;;;;;15.19;100.00;98385.83;1768816;79;21103;-91
2022/09/01 06:40:09;;;;;;;5.70;3.50;;;;;;;15.40;100.00;98387.64;1763812;79;21138;-91
2022/09/01 06:42:34;;;;;;;6.08;3.87;;;;;;;15.64;98.31;98394.88;1773661;79;21080;-83
2022/09/01 06:45:01;;;;;;;6.00;3.77;;;;;;;15.81;97.73;98395.07;1776881;79;21434;-91
2022/09/01 06:47:29;;;;;;;6.47;3.30;;;;;;;15.83;98.49;98395.57;1774862;79;21095;-90
2022/09/01 06:49:57;;;;;;;5.17;3.33;;;;;;;15.89;97.79;98397.06;1768262;79;27351;-84
2022/09/01 06:52:23;;;;;;;10.60;4.12;;;;;;;16.14;97.64;98396.27;1754786;79;21013;-83
2022/09/01 06:54:52;;;;;;;6.42;3.45;;;;;;;16.68;95.37;98398.06;1766584;80;21013;-90
2022/09/01 06:57:18;;;;;;;6.53;3.10;;;;;;;16.86;87.68;98405.86;1763740;80;21084;-83
2022/09/01 06:59:44;;;;;;;6.47;3.33;;;;;;;17.41;92.15;98399.50;1768285;80;21091;-83
2022/09/01 07:02:15;;;;;;;7.80;3.30;;;;;;;17.97;91.82;98399.34;1759093;79;21033;-84
2022/09/01 07:04:41;;;;;;;4.90;2.85;;;;;;;18.18;82.48;98402.28;1778042;79;20982;-84
2022/09/01 07:07:08;;;;;;;5.45;3.37;;;;;;;18.60;84.02;98404.02;1761572;79;21400;-84
2022/09/01 07:09:34;;;;;;;7.33;2.77;;;;;;;18.46;75.88;98400.64;1768765;79;21028;-84
2022/09/01 07:12:02;;;;;;;6.08;3.05;;;;;;;19.25;82.47;98402.20;1768572;79;20993;-84
2022/09/01 07:14:27;;;;;;;7.57;4.03;;;;;;;19.54;74.58;98396.77;1760834;79;21462;-84
2022/09/01 07:16:54;;;;;;;6.03;3.08;;;;;;;19.96;77.76;98396.36;1773499;79;21107;-92
2022/09/01 07:19:20;;;;;;;4.03;3.30;;;;;;;20.21;72.26;98397.91;1761157;79;21271;-91
2022/09/01 07:21:46;;;;;;;4.70;2.72;;;;;;;20.91;75.01;98392.69;1765627;80;21058;-84
2022/09/01 07:24:16;;;;;;;5.58;2.72;;;;;;;21.33;71.54;98394.80;1761341;80;20921;-84
2022/09/01 07:26:41;;;;;;;10.05;3.12;;;;;;;21.13;66.25;98390.37;1753835;79;21069;-84
2022/09/01 07:29:08;;;;;;;5.97;2.58;;;;;;;21.64;70.67;98389.58;1741023;80;21037;-85
2022/09/01 07:31:40;;;;;;;4.03;2.60;;;;;;;21.73;65.48;98392.23;1740760;80;21094;-91
2022/09/01 07:34:09;;;;;;;10.63;2.45;;;;;;;22.29;67.59;98385.53;1733140;80;21029;-91
2022/09/01 07:36:36;;;;;;;5.35;3.02;;;;;;;22.70;67.26;98387.16;1744267;80;21052;-91
2022/09/01 07:39:03;;;;;;;4.72;2.80;;;;;;;22.97;65.44;98388.92;1739733;80;21036;-85
2022/09/01 07:41:29;;;;;;;5.22;2.55;;;;;;;23.05;59.10;98391.53;1736390;80;20974;-89
2022/09/01 07:43:55;;;;;;;6.97;2.30;;;;;;;23.51;63.21;98382.30;1759750;79;21323;-91
2022/09/01 07:46:24;;;;;;;7.72;2.60;;;;;;;23.64;56.66;98387.18;1726828;80;21083;-85
2022/09/01 07:48:52;;;;;;;7.12;2.72;;;;;;;24.12;57.64;98373.53;1740834;80;21021;-85
2022/09/01 07:51:21;;;;;;;4.97;3.05;;;;;;;24.35;57.81;98374.24;1733986;80;22457;-85
2022/09/01 07:53:49;;;;;;;8.00;2.85;;;;;;;24.59;55.04;98368.44;1729767;80;22837;-85
2022/09/01 07:56:17;;;;;;;4.30;2.37;;;;;;;25.16;57.99;98359.11;1741079;80;21340;-85
2022/09/01 07:58:44;;;;;;;3.92;2.70;;;;;;;24.72;48.78;98367.14;1734840;80;21051;-91
2022/09/01 08:01:19;;;;;;;5.80;3.10;;;;;;;24.96;53.93;98366.62;1733177;80;21055;-85
2022/09/01 08:03:53;;;;;;;5.00;2.37;;;;;;;24.68;49.74;98362.69;1731293;81;21131;-86
2022/09/01 08:06:20;;;;;;;5.40;2.47;;;;;;;25.41;52.50;98363.13;1731030;80;21348;-86
2022/09/01 08:08:49;;;;;;;4.67;2.80;;;;;;;26.13;52.63;98358.16;1714570;81;21210;-86
2022/09/01 08:11:23;;;;;;;4.47;2.75;;;;;;;26.49;52.08;98359.52;1730055;80;21152;-90
2022/09/01 08:13:49;;;;;;;6.87;2.30;;;;;;;26.76;50.79;98361.63;1733715;80;21643;-85
2022/09/01 08:16:15;;;;;;;7.97;3.17;;;;;;;26.30;47.23;98360.98;1738265;80;20937;-90
2022/09/01 08:18:42;;;;;;;6.42;2.15;;;;;;;26.44;47.56;98369.55;1732470;81;21018;-85
2022/09/01 08:21:10;;;;;;;5.50;2.00;;;;;;;25.10;45.17;98370.27;1731468;80;21034;-86
2022/09/01 08:23:36;;;;;;;;;;;;;;;24.67;47.43;98365.23;1729809;80;21018;-85
2022/09/01 08:26:09;;;;;;;2.35;1.17;;;;;;;23.30;43.75;98372.86;1752821;80;20430;-91
2022/09/01 08:28:34;;;;;;;5.12;1.40;;;;;;;24.62;46.08;98362.77;1746999;80;21043;-86
2022/09/01 08:31:09;;;;;;;3.25;1.47;;;;;;;25.37;43.19;98364.23;1743157;80;20939;-85
2022/09/01 08:33:37;;;;;;;7.20;1.72;;;;;;;25.50;40.61;98368.44;1746951;80;21118;-91
2022/09/01 08:36:03;;;;;;;3.62;1.37;;;;;;;26.68;40.50;98367.69;1745292;80;28727;-91
2022/09/01 08:38:29;;;;;;;2.67;1.62;;;;;;;25.82;39.53;98372.58;1707120;81;21553;-90
2022/09/01 08:40:57;;;;;;;3.60;1.27;;;;;;;25.25;40.25;98374.92;1729669;80;21455;-85
2022/09/01 08:43:46;;;;;;;1.82;1.22;;;;;;;25.81;39.20;98373.77;1708431;81;21057;-86
2022/09/01 08:46:20;;;;;;;2.47;1.12;;;;;;;26.75;38.69;98376.71;1706592;80;21815;-85
2022/09/01 08:48:56;;;;;;;2.00;1.10;;;;;;;25.86;38.06;98385.12;1742766;80;21040;-85
2022/09/01 08:51:51;;;;;;;2.60;1.47;;;;;;;25.86;38.06;98385.12;1709953;82;21531;-89
2022/09/01 08:54:35;;;;;;;3.55;1.20;;;;;;;26.83;35.74;98383.13;1751336;80;21050;-91
2022/09/01 08:57:08;;;;;;;2.80;1.30;;;;;;;26.93;37.43;98377.72;1732419;80;21318;-85
2022/09/01 08:59:34;;;;;;;2.52;1.55;;;;;;;28.58;37.14;98379.97;1736056;80;21107;-91
2022/09/01 09:02:20;;;;;;;2.35;1.40;;;;;;;26.02;38.00;98382.20;1752421;79;20891;-85
2022/09/01 09:05:15;;;;;;;2.58;1.55;;;;;;;25.75;38.35;98384.95;1762914;80;21050;-91
2022/09/01 09:08:09;;;;;;;5.03;1.40;;;;;;;24.94;40.92;98384.19;1731759;81;21112;-85
2022/09/01 09:11:04;;;;;;;4.22;1.37;;;;;;;26.94;38.95;98382.69;1747680;80;21539;-89
2022/09/01 09:14:01;;;;;;;3.42;1.40;;;;;;;27.57;36.79;98385.16;1726595;80;21133;-92
2022/09/01 09:16:41;;;;;;;3.12;1.40;;;;;;;27.57;36.79;98385.16;1708939;81;20993;-85
2022/09/01 09:19:21;;;;;;;1.67;1.00;;;;;;;25.24;39.69;98381.64;1748035;80;21142;-91
2022/09/01 09:21:49;;;;;;;3.40;1.55;;;;;;;23.10;41.43;98386.34;1747326;80;21798;-84
2022/09/01 09:24:48;;;;;;;3.33;1.37;;;;;;;22.45;43.45;98376.77;1714958;82;21072;-90
2022/09/01 09:27:30;;;;;;;4.78;1.22;;;;;;;21.09;46.64;98378.97;1741242;80;21874;-91
2022/09/01 09:30:03;;;;;;;7.08;1.75;;;;;;;20.48;49.10;98367.72;1751960;80;21470;-89
2022/09/01 09:32:59;;;;;;;4.78;1.32;;;;;;;19.71;52.64;98380.80;1750705;80;21497;-84
2022/09/01 09:35:35;;;;;;;3.85;1.92;;;;;;;19.77;50.88;98371.23;1727385;80;21078;-84
2022/09/01 09:38:18;;;;;;;1.57;1.15;;;;;;;19.48;53.56;98375.28;1738783;80;21005;-84
2022/09/01 09:41:07;;;;;;;2.90;1.57;;;;;;;19.38;53.44;98381.38;1740164;80;21153;-84
2022/09/01 09:43:39;;;;;;;20.20;9.90;;;;;;;19.61;53.11;98372.92;1737747;80;21104;-91
2022/09/01 09:46:33;;;;;;;4.05;1.80;;;;;;;19.99;52.03;98372.88;1735102;80;21068;-91
2022/09/01 09:49:28;;;;;;;2.90;1.60;;;;;;;19.93;53.05;98373.66;1723722;80;21012;-91
2022/09/01 09:52:10;;;;;;;3.72;1.45;;;;;;;19.98;52.37;98369.31;1741538;80;21061;-89
2022/09/01 09:54:40;;;;;;;3.25;1.32;;;;;;;19.85;52.19;98381.38;1722392;82;22022;-85
2022/09/01 09:57:12;;;;;;;3.05;1.60;;;;;;;19.82;51.90;98379.27;1730166;81;21042;-84
2022/09/01 10:00:02;;;;;;;2.37;1.15;;;;;;;19.45;52.36;98374.00;1724464;81;20953;-84
2022/09/01 10:02:40;;;;;;;1.67;0.90;;;;;;;19.07;51.58;98387.70;1727140;81;21426;-84
2022/09/01 10:05:47;;;;;;;2.67;1.07;;;;;;;19.03;52.16;98385.35;1707004;81;21041;-89
2022/09/01 10:08:33;;;;;;;2.22;1.40;;;;;;;19.09;52.73;98380.74;1730729;81;21033;-91
2022/09/01 10:10:57;;;;;;;2.70;0.98;;;;;;;19.31;52.06;98378.89;1721813;81;21037;-91
2022/09/01 10:13:24;;;;;;;1.30;1.00;;;;;;;19.20;52.19;98388.06;1771895;79;20945;-90
2022/09/01 10:15:55;;;;;;;3.08;1.45;;;;;;;19.09;52.54;98384.06;1738184;81;21620;-90
2022/09/01 10:18:31;;;;;;;2.37;0.80;;;;;;;18.81;52.72;98384.44;1765946;80;21434;-84
2022/09/01 10:21:02;;;;;;;3.10;1.05;;;;;;;18.86;52.24;98380.13;1763728;79;21301;-84
2022/09/01 10:23:29;;;;;;;3.12;1.17;;;;;;;19.04;52.60;98381.47;1768681;79;22097;-90
2022/09/01 10:26:00;;;;;;;47.58;4.15;;;;;;;18.93;52.73;98373.34;1769052;80;21044;-88
2022/09/01 10:28:26;;;;;;;36.15;4.47;;;;;;;19.09;50.95;98376.63;1770353;80;21044;-90
2022/09/01 10:30:52;;;;;;;59.50;5.85;;;;;;;19.20;51.67;98368.83;1770151;79;21027;-86
2022/09/01 10:33:20;;;;;;;2.67;1.20;;;;;;;19.39;52.18;98378.86;1769690;80;21098;-83
2022/09/01 10:35:50;;;;;;;5.30;1.30;;;;;;;19.12;51.75;98373.78;1730967;81;21402;-84
2022/09/01 10:38:26;;;;;;;5.67;1.40;;;;;;;19.23;51.57;98375.60;1743756;81;21002;-84
2022/09/01 10:41:06;;;;;;;2.58;1.00;;;;;;;19.28;51.79;98369.94;1749705;80;21492;-92
2022/09/01 10:43:44;;;;;;;3.87;1.15;;;;;;;19.42;51.05;98356.24;1749412;81;21480;-92
2022/09/01 10:46:25;;;;;;;5.33;1.40;;;;;;;19.98;50.69;98357.52;1729615;81;21581;-93
2022/09/01 10:48:56;;;;;;;3.52;1.30;;;;;;;20.26;49.84;98350.95;1726345;82;23132;-84
2022/09/01 10:51:28;;;;;;;3.05;1.15;;;;;;;20.13;50.50;98349.25;1724746;80;21545;-92
2022/09/01 10:53:56;;;;;;;4.62;1.37;;;;;;;19.72;50.58;98355.72;1740850;80;21514;-91
2022/09/01 10:56:27;;;;;;;4.25;1.15;;;;;;;19.38;51.62;98347.60;1756784;79;21404;-84
2022/09/01 10:59:09;;;;;;;3.33;1.10;;;;;;;19.38;52.46;98353.90;1752982;79;22087;-90
2022/09/01 11:01:46;;;;;;;2.52;1.00;;;;;;;19.25;52.55;98356.88;1760959;79;21042;-91
2022/09/01 11:04:31;;;;;;;2.50;1.50;;;;;;;19.18;52.85;98364.81;1761357;79;21466;-90
2022/09/01 11:07:00;;;;;;;2.27;1.62;;;;;;;19.15;52.72;98362.97;1729640;80;21141;-84
2022/09/01 11:09:31;;;;;;;7.80;3.10;;;;;;;19.20;52.97;98363.34;1756535;80;20982;-91
2022/09/01 11:12:30;;;;;;;3.60;1.85;;;;;;;19.36;52.72;98354.00;1754732;80;21223;-91
2022/09/01 11:15:01;;;;;;;4.65;1.30;;;;;;;19.43;52.37;98359.23;1744718;79;21430;-84
2022/09/01 11:17:34;;;;;;;3.15;1.30;;;;;;;19.49;50.78;98356.31;1729506;82;21099;-84
2022/09/01 11:20:18;;;;;;;2.55;1.22;;;;;;;19.69;50.83;98344.02;1755763;80;21047;-84
2022/09/01 11:23:08;;;;;;;1.98;0.80;;;;;;;19.93;50.06;98343.98;1763479;80;21060;-90
2022/09/01 11:25:42;;;;;;;2.40;1.15;;;;;;;19.99;49.84;98342.62;1728550;80;21069;-85
2022/09/01 11:28:31;;;;;;;3.17;1.27;;;;;;;20.13;49.06;98340.43;1760834;80;21404;-84
2022/09/01 11:31:09;;;;;;;3.20;1.10;;;;;;;19.86;50.63;98344.49;1754390;81;21809;-89
2022/09/01 11:34:10;;;;;;;2.47;0.82;;;;;;;19.78;50.89;98345.92;1731074;82;21068;-85
2022/09/01 11:36:59;;;;;;;4.08;1.40;;;;;;;19.86;50.96;98347.81;1759013;80;21532;-91
2022/09/01 11:39:38;;;;;;;1.37;0.80;;;;;;;19.82;50.86;98349.03;1753709;80;21103;-92
2022/09/01 11:42:13;;;;;;;4.47;1.00;;;;;;;20.14;50.89;98346.16;1750426;80;21060;-91
2022/09/01 11:45:22;;;;;;;3.60;0.95;;;;;;;20.40;50.08;98341.03;1753771;80;21440;-91
2022/09/01 11:47:51;;;;;;;2.72;1.02;;;;;;;20.45;50.70;98352.69;1744411;80;20985;-92
2022/09/01 11:50:27;;;;;;;3.20;1.00;;;;;;;19.99;47.46;98348.13;1720905;80;20959;-84